createdAt,value
2018-12-11T00:00:08.749Z,3.67
2018-12-11T00:02:52.456Z,3.60
2018-12-11T00:05:35.871Z,3.23
2018-12-11T00:08:17.266Z,3.08
2018-12-11T00:10:59.570Z,3.12
2018-12-11T00:13:41.209Z,3.40
2018-12-11T00:16:22.963Z,3.70
2018-12-11T00:19:04.914Z,2.87
2018-12-11T00:21:46.777Z,3.42
2018-12-11T00:24:28.411Z,2.80
2018-12-11T00:27:10.316Z,3.05
2018-12-11T00:29:52.260Z,2.85
2018-12-11T00:32:34.604Z,2.83
2018-12-11T00:35:16.069Z,3.20
2018-12-11T00:37:57.719Z,2.65
2018-12-11T00:40:39.671Z,3.20
2018-12-11T00:43:21.462Z,2.92
2018-12-11T00:46:03.251Z,2.90
2018-12-11T00:48:45.014Z,2.22
2018-12-11T00:51:27.916Z,2.35
2018-12-11T00:54:09.895Z,2.40
2018-12-11T00:56:51.324Z,2.00
2018-12-11T00:59:32.793Z,1.80
2018-12-11T01:02:14.450Z,1.87
2018-12-11T01:04:55.738Z,1.90
2018-12-11T01:07:37.536Z,1.70
2018-12-11T01:10:18.861Z,1.20
2018-12-11T01:13:00.580Z,1.50
2018-12-11T01:15:42.340Z,1.57
2018-12-11T01:18:23.998Z,1.60
2018-12-11T01:21:06.440Z,2.05
2018-12-11T01:23:48.232Z,1.50
2018-12-11T01:26:30.013Z,1.60
2018-12-11T01:29:11.391Z,1.52
2018-12-11T01:31:53.131Z,1.75
2018-12-11T01:34:34.693Z,1.80
2018-12-11T01:37:15.956Z,1.87
2018-12-11T01:39:57.553Z,2.20
2018-12-11T01:42:39.923Z,2.00
2018-12-11T01:45:21.821Z,2.52
2018-12-11T01:48:03.527Z,2.00
2018-12-11T01:50:45.687Z,2.35
2018-12-11T01:53:27.415Z,1.98
2018-12-11T01:56:09.575Z,2.40
2018-12-11T01:58:51.183Z,2.45
2018-12-11T02:01:33.215Z,2.58
2018-12-11T02:04:14.874Z,1.95
2018-12-11T02:06:56.056Z,2.40
2018-12-11T02:09:38.099Z,2.37
2018-12-11T02:12:19.833Z,2.33
2018-12-11T02:15:02.034Z,3.30
2018-12-11T02:17:44.028Z,2.67
2018-12-11T02:20:25.891Z,2.30
2018-12-11T02:23:07.101Z,3.35
2018-12-11T02:25:49.413Z,3.50
2018-12-11T02:28:32.057Z,2.27
2018-12-11T02:31:14.435Z,3.15
2018-12-11T02:33:57.057Z,2.52
2018-12-11T02:36:38.437Z,2.80
2018-12-11T02:39:21.178Z,2.40
2018-12-11T02:42:04.098Z,3.05
2018-12-11T02:44:46.915Z,2.65
2018-12-11T02:47:28.726Z,3.00
2018-12-11T02:50:10.568Z,2.05
2018-12-11T02:52:52.360Z,2.15
2018-12-11T02:55:34.542Z,3.17
2018-12-11T02:58:16.765Z,2.22
2018-12-11T03:00:58.690Z,3.60
2018-12-11T03:03:40.511Z,2.83
2018-12-11T03:06:22.639Z,2.60
2018-12-11T03:09:07.648Z,2.72
2018-12-11T03:11:50.648Z,2.72
2018-12-11T03:14:33.321Z,3.15
2018-12-11T03:17:15.681Z,2.92
2018-12-11T03:19:58.419Z,3.02
2018-12-11T03:22:40.317Z,3.30
2018-12-11T03:25:22.479Z,3.58
2018-12-11T03:28:04.886Z,3.20
2018-12-11T03:30:47.048Z,3.05
2018-12-11T03:33:29.294Z,3.17
2018-12-11T03:36:11.549Z,3.22
2018-12-11T03:38:53.471Z,3.27
2018-12-11T03:41:36.471Z,3.17
2018-12-11T03:44:19.203Z,3.20
2018-12-11T03:47:01.656Z,3.33
2018-12-11T03:49:43.434Z,2.67
2018-12-11T03:52:26.049Z,3.77
2018-12-11T03:55:09.202Z,3.75
2018-12-11T03:57:51.518Z,4.03
2018-12-11T04:00:34.042Z,3.72
2018-12-11T04:03:16.697Z,3.00
2018-12-11T04:05:59.237Z,2.45
2018-12-11T04:08:41.670Z,3.52
2018-12-11T04:11:24.237Z,3.35
2018-12-11T04:14:06.136Z,2.90
2018-12-11T04:16:48.569Z,3.58
2018-12-11T04:19:31.327Z,3.45
2018-12-11T04:22:12.872Z,3.75
2018-12-11T04:24:55.561Z,3.60
2018-12-11T04:27:37.919Z,3.22
2018-12-11T04:30:20.281Z,3.50
2018-12-11T04:33:03.014Z,3.60
2018-12-11T04:35:45.311Z,3.40
2018-12-11T04:38:27.499Z,3.83
2018-12-11T04:41:10.581Z,3.58
2018-12-11T04:43:52.955Z,4.17
2018-12-11T04:46:34.313Z,3.85
2018-12-11T04:49:16.156Z,4.42
2018-12-11T04:51:58.156Z,4.35
2018-12-11T04:54:40.643Z,3.85
2018-12-11T04:57:23.107Z,4.15
2018-12-11T05:00:05.926Z,3.58
2018-12-11T05:02:48.552Z,3.80
2018-12-11T05:05:30.910Z,3.62
2018-12-11T05:08:16.838Z,4.20
2018-12-11T05:10:59.001Z,3.95
2018-12-11T05:13:40.730Z,3.72
2018-12-11T05:16:23.238Z,3.17
2018-12-11T05:19:05.288Z,3.42
2018-12-11T05:21:47.571Z,3.35
2018-12-11T05:24:29.082Z,4.05
2018-12-11T05:27:11.266Z,3.87
2018-12-11T05:29:53.709Z,3.42
2018-12-11T05:32:36.497Z,3.87
2018-12-11T05:35:21.997Z,3.20
2018-12-11T05:38:04.366Z,4.00
2018-12-11T05:40:46.873Z,2.98
2018-12-11T05:43:29.012Z,3.72
2018-12-11T05:46:11.643Z,2.95
2018-12-11T05:48:53.399Z,2.77
2018-12-11T05:51:35.532Z,3.02
2018-12-11T05:54:17.677Z,3.02
2018-12-11T05:56:59.053Z,3.33
2018-12-11T05:59:41.051Z,3.15
2018-12-11T06:02:22.810Z,3.60
2018-12-11T06:05:06.331Z,3.52
2018-12-11T06:07:48.620Z,3.10
2018-12-11T06:10:31.318Z,3.12
2018-12-11T06:13:13.701Z,3.35
2018-12-11T06:15:55.574Z,2.98
2018-12-11T06:18:38.602Z,2.83
2018-12-11T06:21:20.994Z,3.35
2018-12-11T06:24:02.794Z,3.17
2018-12-11T06:26:45.160Z,2.95
2018-12-11T06:29:28.681Z,2.65
2018-12-11T06:32:11.047Z,3.30
2018-12-11T06:34:53.634Z,2.77
2018-12-11T06:37:36.196Z,3.35
2018-12-11T06:40:18.943Z,2.62
2018-12-11T06:43:00.717Z,2.62
2018-12-11T06:45:43.020Z,3.30
2018-12-11T06:48:25.818Z,3.60
2018-12-11T06:51:07.639Z,3.20
2018-12-11T06:53:49.577Z,6.58
2018-12-11T06:56:33.315Z,3.83
2018-12-11T06:59:15.995Z,3.52
2018-12-11T07:01:58.684Z,3.55
2018-12-11T07:04:41.128Z,3.37
2018-12-11T07:07:22.725Z,3.12
2018-12-11T07:10:06.444Z,4.45
2018-12-11T07:12:48.405Z,3.47
2018-12-11T07:15:31.489Z,3.58
2018-12-11T07:18:13.106Z,3.08
2018-12-11T07:20:54.308Z,3.75
2018-12-11T07:23:36.280Z,3.25
2018-12-11T07:26:18.546Z,4.03
2018-12-11T07:29:00.424Z,3.37
2018-12-11T07:31:42.806Z,3.87
2018-12-11T07:34:24.911Z,3.10
2018-12-11T07:37:07.060Z,3.80
2018-12-11T07:39:50.006Z,4.60
2018-12-11T07:42:31.614Z,3.33
2018-12-11T07:45:13.665Z,3.33
2018-12-11T07:47:54.895Z,3.47
2018-12-11T07:50:36.564Z,3.08
2018-12-11T07:53:17.823Z,3.45
2018-12-11T07:56:00.386Z,3.47
2018-12-11T07:58:42.866Z,3.17
2018-12-11T08:01:24.881Z,3.77
2018-12-11T08:04:07.058Z,3.70
2018-12-11T08:06:48.662Z,3.42
2018-12-11T08:09:30.211Z,3.55
2018-12-11T08:12:12.337Z,3.33
2018-12-11T08:14:54.516Z,3.60
2018-12-11T08:17:36.711Z,3.62
2018-12-11T08:20:18.463Z,3.70
2018-12-11T08:22:59.841Z,3.45
2018-12-11T08:25:41.755Z,3.35
2018-12-11T08:28:23.312Z,4.37
2018-12-11T08:31:05.122Z,3.02
2018-12-11T08:33:46.310Z,4.05
2018-12-11T08:36:28.009Z,3.70
2018-12-11T08:39:10.129Z,3.37
2018-12-11T08:41:52.119Z,3.50
2018-12-11T08:44:33.249Z,3.33
2018-12-11T08:47:15.030Z,2.87
2018-12-11T08:49:56.672Z,4.15
2018-12-11T08:52:37.795Z,4.00
2018-12-11T08:55:19.065Z,3.20
2018-12-11T08:58:00.728Z,3.33
2018-12-11T09:00:42.735Z,3.02
2018-12-11T09:03:24.292Z,3.42
2018-12-11T09:06:06.597Z,3.17
2018-12-11T09:08:48.655Z,3.95
2018-12-11T09:11:30.447Z,3.40
2018-12-11T09:14:12.801Z,3.35
2018-12-11T09:16:55.061Z,3.80
2018-12-11T09:19:36.623Z,3.87
2018-12-11T09:22:18.335Z,3.80
2018-12-11T09:25:00.284Z,3.67
2018-12-11T09:27:41.842Z,3.70
2018-12-11T09:30:23.539Z,4.85
2018-12-11T09:33:05.697Z,4.12
2018-12-11T09:35:48.780Z,4.00
2018-12-11T09:38:30.208Z,4.05
2018-12-11T09:41:11.876Z,3.70
2018-12-11T09:43:53.771Z,3.67
2018-12-11T09:46:35.514Z,4.08
2018-12-11T09:49:17.774Z,4.35
2018-12-11T09:51:59.639Z,3.90
2018-12-11T09:54:41.903Z,4.12
2018-12-11T09:57:23.638Z,4.00
2018-12-11T10:00:08.496Z,4.40
2018-12-11T10:02:50.189Z,3.90
2018-12-11T10:05:32.767Z,4.22
2018-12-11T10:08:14.623Z,3.80
2018-12-11T10:10:56.912Z,4.08
2018-12-11T10:13:39.217Z,4.87
2018-12-11T10:16:21.478Z,4.10
2018-12-11T10:19:02.783Z,4.53
2018-12-11T10:21:45.822Z,4.33
2018-12-11T10:24:27.749Z,4.45
2018-12-11T10:27:10.403Z,5.03
2018-12-11T10:29:51.681Z,5.17
2018-12-11T10:32:32.926Z,4.90
2018-12-11T10:35:15.510Z,5.10
2018-12-11T10:37:57.358Z,4.45
2018-12-11T10:40:39.980Z,4.50
2018-12-11T10:43:22.093Z,4.05
2018-12-11T10:46:04.181Z,4.75
2018-12-11T10:48:46.281Z,4.78
2018-12-11T10:51:28.546Z,4.20
2018-12-11T10:54:11.313Z,5.10
2018-12-11T10:56:53.708Z,4.85
2018-12-11T10:59:35.965Z,5.25
2018-12-11T11:02:26.443Z,5.00
2018-12-11T11:05:09.152Z,5.97
2018-12-11T11:07:51.339Z,5.33
2018-12-11T11:10:33.488Z,5.15
2018-12-11T11:13:15.280Z,5.58
2018-12-11T11:15:57.767Z,5.72
2018-12-11T11:18:40.339Z,5.45
2018-12-11T11:21:22.896Z,4.75
2018-12-11T11:24:05.527Z,5.35
2018-12-11T11:27:30.886Z,5.65
2018-12-11T11:30:27.432Z,5.70
2018-12-11T11:33:10.763Z,5.42
2018-12-11T11:35:55.674Z,5.12
2018-12-11T11:38:52.797Z,5.83
2018-12-11T11:41:43.114Z,5.22
2018-12-11T11:44:25.088Z,5.55
2018-12-11T11:47:11.976Z,4.83
2018-12-11T11:49:55.838Z,7.95
2018-12-11T11:52:51.159Z,4.75
2018-12-11T11:55:38.977Z,5.08
2018-12-11T11:58:21.258Z,5.60
2018-12-11T12:01:06.282Z,5.30
2018-12-11T12:03:50.444Z,5.28
2018-12-11T12:06:33.926Z,4.95
2018-12-11T12:09:27.328Z,5.42
2018-12-11T12:12:09.375Z,6.10
2018-12-11T12:14:52.246Z,5.42
2018-12-11T12:17:34.336Z,5.58
2018-12-11T12:20:16.579Z,5.42
2018-12-11T12:22:58.891Z,6.92
2018-12-11T12:25:41.146Z,5.78
2018-12-11T12:28:23.695Z,5.37
2018-12-11T12:31:07.309Z,6.50
2018-12-11T12:33:49.263Z,5.78
2018-12-11T12:36:32.387Z,5.70
2018-12-11T12:39:15.030Z,6.50
2018-12-11T12:41:56.925Z,6.05
2018-12-11T12:44:39.102Z,5.78
2018-12-11T12:47:21.611Z,5.97
2018-12-11T12:50:04.736Z,5.85
2018-12-11T12:52:48.379Z,6.62
2018-12-11T12:55:31.513Z,6.92
2018-12-11T12:58:13.990Z,6.55
2018-12-11T13:00:56.263Z,5.92
2018-12-11T13:03:38.911Z,5.78
2018-12-11T13:06:21.477Z,6.28
2018-12-11T13:09:05.521Z,5.85
2018-12-11T13:11:48.143Z,6.33
2018-12-11T13:14:30.073Z,6.05
2018-12-11T13:17:12.657Z,6.40
2018-12-11T13:19:54.517Z,6.05
2018-12-11T13:25:19.410Z,6.35
2018-12-11T13:28:01.808Z,6.45
2018-12-11T13:30:44.464Z,6.10
2018-12-11T13:33:26.415Z,6.20
2018-12-11T13:36:09.061Z,6.65
2018-12-11T13:38:53.496Z,5.83
2018-12-11T13:41:35.411Z,6.33
2018-12-11T13:44:18.506Z,6.37
2018-12-11T13:47:00.068Z,6.47
2018-12-11T13:49:42.772Z,5.87
2018-12-11T13:52:25.482Z,6.50
2018-12-11T13:55:08.073Z,6.20
2018-12-11T13:57:49.832Z,6.87
2018-12-11T14:00:33.280Z,6.25
2018-12-11T14:03:15.415Z,6.03
2018-12-11T14:05:57.211Z,5.90
2018-12-11T14:08:39.464Z,5.15
2018-12-11T14:11:22.029Z,5.65
2018-12-11T14:14:04.586Z,5.33
2018-12-11T14:16:46.484Z,5.83
2018-12-11T14:19:29.268Z,5.72
2018-12-11T14:22:11.957Z,6.58
2018-12-11T14:24:54.216Z,6.50
2018-12-11T14:27:36.586Z,6.17
2018-12-11T14:30:19.248Z,6.80
2018-12-11T14:33:01.645Z,6.60
2018-12-11T14:35:43.946Z,5.95
2018-12-11T14:38:27.353Z,6.03
2018-12-11T14:41:09.580Z,6.45
2018-12-11T14:43:52.051Z,6.90
2018-12-11T14:46:34.530Z,6.40
2018-12-11T14:49:17.317Z,7.55
2018-12-11T14:52:00.089Z,7.28
2018-12-11T14:54:42.340Z,6.60
2018-12-11T14:57:24.356Z,7.30
2018-12-11T15:00:09.702Z,7.15
2018-12-11T15:02:52.139Z,6.58
2018-12-11T15:05:35.102Z,6.92
2018-12-11T15:08:17.038Z,7.90
2018-12-11T15:10:59.282Z,6.10
2018-12-11T15:13:41.485Z,6.97
2018-12-11T15:16:25.324Z,7.42
2018-12-11T15:19:07.969Z,6.45
2018-12-11T15:21:50.750Z,6.78
2018-12-11T15:24:33.059Z,5.70
2018-12-11T15:27:15.852Z,5.40
2018-12-11T15:29:57.899Z,5.22
2018-12-11T15:32:39.330Z,5.20
2018-12-11T15:35:21.316Z,5.25
2018-12-11T15:38:03.205Z,5.22
2018-12-11T15:40:45.574Z,5.08
2018-12-11T15:43:28.480Z,6.62
2018-12-11T15:46:14.406Z,5.45
2018-12-11T15:48:56.879Z,6.03
2018-12-11T15:51:38.371Z,5.30
2018-12-11T15:54:20.698Z,6.87
2018-12-11T15:57:03.860Z,6.22
2018-12-11T15:59:45.917Z,6.45
2018-12-11T16:02:28.807Z,6.80
2018-12-11T16:05:15.295Z,5.65
2018-12-11T16:08:00.191Z,6.05
2018-12-11T16:10:42.442Z,5.90
2018-12-11T16:13:24.487Z,5.83
2018-12-11T16:16:07.216Z,6.15
2018-12-11T16:18:48.485Z,5.50
2018-12-11T16:21:31.034Z,5.33
2018-12-11T16:24:12.473Z,5.40
2018-12-11T16:29:37.436Z,5.05
2018-12-11T16:32:19.562Z,5.62
2018-12-11T16:35:01.800Z,4.87
2018-12-11T16:37:44.861Z,6.00
2018-12-11T16:40:26.651Z,5.53
2018-12-11T16:43:08.873Z,8.60
2018-12-11T16:45:50.975Z,5.30
2018-12-11T16:48:32.864Z,5.20
2018-12-11T16:51:14.398Z,5.10
2018-12-11T16:53:56.608Z,5.10
2018-12-11T16:56:38.384Z,5.33
2018-12-11T16:59:20.780Z,4.92
2018-12-11T17:02:02.606Z,5.70
2018-12-11T17:04:43.812Z,5.03
2018-12-11T17:07:26.503Z,5.72
2018-12-11T17:10:09.319Z,4.60
2018-12-11T17:12:51.029Z,5.03
2018-12-11T17:15:34.232Z,4.72
2018-12-11T17:18:15.477Z,4.97
2018-12-11T17:20:57.114Z,4.70
2018-12-11T17:23:40.100Z,5.78
2018-12-11T17:26:22.504Z,5.95
2018-12-11T17:29:04.598Z,5.50
2018-12-11T17:31:46.292Z,4.75
2018-12-11T17:34:27.646Z,5.22
2018-12-11T17:37:09.787Z,5.95
2018-12-11T17:39:51.910Z,5.25
2018-12-11T17:42:33.318Z,6.35
2018-12-11T17:48:00.499Z,6.33
2018-12-11T17:50:43.077Z,6.12
2018-12-11T17:53:24.497Z,8.03
2018-12-11T17:56:07.250Z,6.75
2018-12-11T17:58:49.586Z,7.62
2018-12-11T18:01:34.758Z,6.70
2018-12-11T18:04:17.472Z,6.60
2018-12-11T18:07:01.313Z,7.50
2018-12-11T18:09:45.092Z,7.10
2018-12-11T18:12:28.272Z,7.08
2018-12-11T18:15:11.961Z,7.72
2018-12-11T18:17:53.784Z,6.83
2018-12-11T18:20:35.756Z,6.40
2018-12-11T18:23:17.139Z,6.72
2018-12-11T18:25:59.275Z,7.03
2018-12-11T18:28:43.103Z,7.50
2018-12-11T18:31:25.870Z,6.58
2018-12-11T18:34:11.166Z,6.45
2018-12-11T18:36:53.409Z,7.10
2018-12-11T18:39:36.508Z,6.65
2018-12-11T18:42:20.009Z,7.10
2018-12-11T18:45:04.307Z,5.53
2018-12-11T18:47:49.936Z,5.65
2018-12-11T18:50:30.182Z,5.90
2018-12-11T18:53:13.360Z,5.62
2018-12-11T18:55:55.567Z,6.35
2018-12-11T18:58:36.725Z,6.33
2018-12-11T19:01:19.649Z,6.62
2018-12-11T19:04:01.599Z,6.42
2018-12-11T19:06:44.694Z,6.35
2018-12-11T19:09:26.486Z,6.55
2018-12-11T19:12:08.444Z,6.90
2018-12-11T19:14:50.064Z,6.70
2018-12-11T19:17:31.493Z,6.95
2018-12-11T19:20:14.390Z,6.67
2018-12-11T19:23:07.188Z,7.75
2018-12-11T19:25:49.770Z,7.15
2018-12-11T19:28:32.193Z,7.33
2018-12-11T19:31:14.483Z,7.55
2018-12-11T19:33:57.623Z,7.37
2018-12-11T19:36:39.670Z,7.67
2018-12-11T19:39:23.679Z,7.90
2018-12-11T19:42:06.493Z,7.05
2018-12-11T19:44:47.844Z,7.17
2018-12-11T19:47:29.708Z,7.53
2018-12-11T19:50:12.865Z,6.37
2018-12-11T19:52:55.789Z,7.30
2018-12-11T19:55:37.852Z,7.42
2018-12-11T19:58:19.233Z,8.18
2018-12-11T20:01:01.399Z,7.22
2018-12-11T20:03:45.197Z,7.00
2018-12-11T20:06:27.197Z,7.50
2018-12-11T20:09:10.870Z,7.35
2018-12-11T20:11:54.828Z,7.40
2018-12-11T20:14:37.776Z,7.55
2018-12-11T20:17:19.075Z,7.22
2018-12-11T20:20:00.475Z,6.20
2018-12-11T20:22:42.020Z,6.50
2018-12-11T20:25:23.349Z,6.17
2018-12-11T20:28:04.967Z,6.40
2018-12-11T20:30:46.669Z,5.72
2018-12-11T20:33:27.967Z,5.33
2018-12-11T20:36:10.242Z,5.80
2018-12-11T20:38:51.892Z,6.20
2018-12-11T20:41:33.900Z,6.08
2018-12-11T20:44:15.612Z,5.58
2018-12-11T20:46:56.911Z,5.35
2018-12-11T20:49:38.787Z,5.33
2018-12-11T20:52:20.697Z,5.40
2018-12-11T20:55:02.837Z,6.35
2018-12-11T20:57:44.834Z,6.03
2018-12-11T21:00:29.472Z,5.67
2018-12-11T21:03:12.343Z,6.25
2018-12-11T21:05:54.103Z,6.08
2018-12-11T21:08:36.468Z,6.22
2018-12-11T21:11:18.179Z,6.37
2018-12-11T21:14:00.175Z,6.42
2018-12-11T21:16:43.179Z,6.50
2018-12-11T21:19:25.301Z,6.53
2018-12-11T21:22:06.894Z,6.70
2018-12-11T21:24:48.929Z,6.62
2018-12-11T21:27:30.504Z,8.00
2018-12-11T21:30:13.147Z,6.50
2018-12-11T21:32:57.063Z,6.10
2018-12-11T21:35:38.815Z,7.20
2018-12-11T21:38:20.648Z,6.53
2018-12-11T21:41:02.061Z,6.28
2018-12-11T21:43:43.725Z,6.08
2018-12-11T21:46:25.814Z,6.35
2018-12-11T21:49:07.813Z,6.50
2018-12-11T21:51:49.444Z,5.70
2018-12-11T21:54:31.841Z,6.45
2018-12-11T21:57:13.845Z,5.95
2018-12-11T21:59:55.607Z,5.83
2018-12-11T22:02:37.021Z,5.97
2018-12-11T22:05:18.681Z,6.40
2018-12-11T22:08:00.309Z,5.87
2018-12-11T22:10:42.170Z,5.83
2018-12-11T22:13:23.713Z,5.95
2018-12-11T22:16:05.882Z,6.37
2018-12-11T22:18:47.201Z,5.40
2018-12-11T22:21:28.600Z,5.47
2018-12-11T22:24:10.347Z,4.80
2018-12-11T22:26:52.880Z,4.50
2018-12-11T22:29:34.520Z,4.35
2018-12-11T22:32:16.109Z,4.42
2018-12-11T22:34:57.771Z,3.20
2018-12-11T22:37:39.900Z,2.80
2018-12-11T22:40:21.278Z,3.27
2018-12-11T22:43:02.567Z,2.45
2018-12-11T22:45:44.618Z,2.17
2018-12-11T22:48:26.229Z,3.22
2018-12-11T22:51:09.099Z,2.30
2018-12-11T22:53:50.968Z,2.15
2018-12-11T22:56:32.624Z,2.25
2018-12-11T22:59:13.963Z,3.30
2018-12-11T23:01:55.789Z,2.27
2018-12-11T23:04:37.088Z,2.15
2018-12-11T23:07:18.387Z,2.30
2018-12-11T23:10:00.013Z,2.30
2018-12-11T23:12:41.295Z,2.17
2018-12-11T23:15:23.167Z,2.35
2018-12-11T23:18:05.201Z,2.52
2018-12-11T23:20:46.856Z,2.10
2018-12-11T23:23:28.378Z,2.90
2018-12-11T23:26:09.795Z,3.12
2018-12-11T23:28:51.654Z,3.95
2018-12-11T23:31:33.512Z,3.85
2018-12-11T23:34:15.481Z,4.45
2018-12-11T23:36:57.636Z,4.72
2018-12-11T23:39:39.439Z,4.83
2018-12-11T23:42:20.685Z,7.03
2018-12-11T23:45:01.929Z,4.87
2018-12-11T23:47:43.184Z,5.12
2018-12-11T23:50:25.003Z,4.95
2018-12-11T23:53:06.221Z,5.45
2018-12-11T23:55:47.534Z,5.12
2018-12-11T23:58:29.739Z,5.45
